sensor_id;sensor_type;location;lat;lon;timestamp;P1;durP1;ratioP1;P2;durP2;ratioP2
3811;SDS011;1921;49.368;11.068;2022-11-15T00:00:53;50.90;;;46.10;;
3811;SDS011;1921;49.368;11.068;2022-11-15T00:03:20;50.60;;;45.87;;
3811;SDS011;1921;49.368;11.068;2022-11-15T00:05:52;51.17;;;46.37;;
3811;SDS011;1921;49.368;11.068;2022-11-15T00:08:18;49.27;;;44.40;;
3811;SDS011;1921;49.368;11.068;2022-11-15T00:10:54;50.80;;;46.07;;
3811;SDS011;1921;49.368;11.068;2022-11-15T00:13:24;49.30;;;44.57;;
3811;SDS011;1921;49.368;11.068;2022-11-15T00:15:51;48.23;;;44.03;;
3811;SDS011;1921;49.368;11.068;2022-11-15T00:18:17;50.33;;;45.57;;
3811;SDS011;1921;49.368;11.068;2022-11-15T00:20:44;50.07;;;45.57;;
3811;SDS011;1921;49.368;11.068;2022-11-15T00:23:10;51.50;;;46.33;;
3811;SDS011;1921;49.368;11.068;2022-11-15T00:25:36;48.80;;;44.37;;
3811;SDS011;1921;49.368;11.068;2022-11-15T00:28:01;47.67;;;43.57;;
3811;SDS011;1921;49.368;11.068;2022-11-15T00:30:27;50.10;;;45.60;;
3811;SDS011;1921;49.368;11.068;2022-11-15T00:32:53;50.20;;;45.60;;
3811;SDS011;1921;49.368;11.068;2022-11-15T00:35:20;49.60;;;45.23;;
3811;SDS011;1921;49.368;11.068;2022-11-15T00:37:46;50.40;;;45.50;;
3811;SDS011;1921;49.368;11.068;2022-11-15T00:40:12;50.80;;;45.40;;
3811;SDS011;1921;49.368;11.068;2022-11-15T00:42:39;51.30;;;46.20;;
3811;SDS011;1921;49.368;11.068;2022-11-15T00:45:06;49.70;;;45.30;;
3811;SDS011;1921;49.368;11.068;2022-11-15T00:47:32;50.33;;;45.60;;
3811;SDS011;1921;49.368;11.068;2022-11-15T00:49:58;50.43;;;45.60;;
3811;SDS011;1921;49.368;11.068;2022-11-15T00:52:23;49.73;;;45.23;;
3811;SDS011;1921;49.368;11.068;2022-11-15T00:54:49;50.03;;;45.33;;
3811;SDS011;1921;49.368;11.068;2022-11-15T00:57:15;49.50;;;45.10;;
3811;SDS011;1921;49.368;11.068;2022-11-15T00:59:41;50.37;;;45.83;;
3811;SDS011;1921;49.368;11.068;2022-11-15T01:02:06;48.27;;;44.13;;
3811;SDS011;1921;49.368;11.068;2022-11-15T01:04:32;49.67;;;45.10;;
3811;SDS011;1921;49.368;11.068;2022-11-15T01:06:58;48.63;;;44.40;;
3811;SDS011;1921;49.368;11.068;2022-11-15T01:09:24;50.87;;;46.17;;
3811;SDS011;1921;49.368;11.068;2022-11-15T01:11:49;52.90;;;47.83;;
3811;SDS011;1921;49.368;11.068;2022-11-15T01:14:15;49.80;;;44.90;;
3811;SDS011;1921;49.368;11.068;2022-11-15T01:16:41;50.03;;;45.40;;
3811;SDS011;1921;49.368;11.068;2022-11-15T01:19:06;49.20;;;44.90;;
3811;SDS011;1921;49.368;11.068;2022-11-15T01:21:32;48.93;;;44.70;;
3811;SDS011;1921;49.368;11.068;2022-11-15T01:23:58;49.77;;;45.07;;
3811;SDS011;1921;49.368;11.068;2022-11-15T01:26:24;50.30;;;45.90;;
3811;SDS011;1921;49.368;11.068;2022-11-15T01:28:50;49.43;;;45.03;;
3811;SDS011;1921;49.368;11.068;2022-11-15T01:31:18;49.23;;;44.73;;
3811;SDS011;1921;49.368;11.068;2022-11-15T01:33:46;48.70;;;44.30;;
3811;SDS011;1921;49.368;11.068;2022-11-15T01:36:17;48.67;;;44.47;;
3811;SDS011;1921;49.368;11.068;2022-11-15T01:38:46;48.40;;;44.20;;
3811;SDS011;1921;49.368;11.068;2022-11-15T01:41:18;48.97;;;44.67;;
3811;SDS011;1921;49.368;11.068;2022-11-15T01:43:54;49.10;;;44.60;;
3811;SDS011;1921;49.368;11.068;2022-11-15T01:46:41;48.70;;;43.90;;
3811;SDS011;1921;49.368;11.068;2022-11-15T01:49:12;49.47;;;44.87;;
3811;SDS011;1921;49.368;11.068;2022-11-15T01:51:45;49.43;;;44.77;;
3811;SDS011;1921;49.368;11.068;2022-11-15T01:54:12;49.43;;;44.87;;
3811;SDS011;1921;49.368;11.068;2022-11-15T01:56:51;50.10;;;45.47;;
3811;SDS011;1921;49.368;11.068;2022-11-15T01:59:29;49.40;;;44.97;;
3811;SDS011;1921;49.368;11.068;2022-11-15T02:01:55;49.40;;;45.00;;
3811;SDS011;1921;49.368;11.068;2022-11-15T02:06:52;51.27;;;46.67;;
3811;SDS011;1921;49.368;11.068;2022-11-15T02:09:18;50.10;;;45.30;;
3811;SDS011;1921;49.368;11.068;2022-11-15T02:11:44;49.90;;;45.17;;
3811;SDS011;1921;49.368;11.068;2022-11-15T02:14:12;51.60;;;46.67;;
3811;SDS011;1921;49.368;11.068;2022-11-15T02:37:30;50.67;;;45.77;;
3811;SDS011;1921;49.368;11.068;2022-11-15T02:40:15;49.07;;;44.80;;
3811;SDS011;1921;49.368;11.068;2022-11-15T02:43:00;50.63;;;45.97;;
3811;SDS011;1921;49.368;11.068;2022-11-15T02:45:56;52.03;;;46.00;;
3811;SDS011;1921;49.368;11.068;2022-11-15T02:48:33;50.70;;;45.60;;
3811;SDS011;1921;49.368;11.068;2022-11-15T02:51:00;51.50;;;46.10;;
3811;SDS011;1921;49.368;11.068;2022-11-15T02:53:27;50.93;;;46.00;;
3811;SDS011;1921;49.368;11.068;2022-11-15T02:55:53;49.87;;;45.07;;
3811;SDS011;1921;49.368;11.068;2022-11-15T03:01:26;48.57;;;44.60;;
3811;SDS011;1921;49.368;11.068;2022-11-15T03:06:38;48.07;;;43.63;;
3811;SDS011;1921;49.368;11.068;2022-11-15T03:09:39;49.43;;;45.00;;
3811;SDS011;1921;49.368;11.068;2022-11-15T03:12:16;47.07;;;43.33;;
3811;SDS011;1921;49.368;11.068;2022-11-15T03:15:37;47.97;;;43.90;;
3811;SDS011;1921;49.368;11.068;2022-11-15T03:18:32;49.07;;;44.97;;
3811;SDS011;1921;49.368;11.068;2022-11-15T03:21:08;48.53;;;44.47;;
3811;SDS011;1921;49.368;11.068;2022-11-15T03:23:37;50.67;;;45.60;;
3811;SDS011;1921;49.368;11.068;2022-11-15T03:26:07;50.13;;;45.53;;
3811;SDS011;1921;49.368;11.068;2022-11-15T03:28:37;49.80;;;45.50;;
3811;SDS011;1921;49.368;11.068;2022-11-15T03:31:20;49.50;;;45.20;;
3811;SDS011;1921;49.368;11.068;2022-11-15T03:34:11;49.30;;;44.80;;
3811;SDS011;1921;49.368;11.068;2022-11-15T03:36:54;49.23;;;44.83;;
3811;SDS011;1921;49.368;11.068;2022-11-15T03:39:20;47.57;;;43.47;;
3811;SDS011;1921;49.368;11.068;2022-11-15T03:45:05;50.10;;;45.60;;
3811;SDS011;1921;49.368;11.068;2022-11-15T03:48:09;48.47;;;44.40;;
3811;SDS011;1921;49.368;11.068;2022-11-15T03:50:41;48.97;;;44.70;;
3811;SDS011;1921;49.368;11.068;2022-11-15T03:53:08;50.67;;;45.67;;
3811;SDS011;1921;49.368;11.068;2022-11-15T03:55:35;49.07;;;44.77;;
3811;SDS011;1921;49.368;11.068;2022-11-15T03:58:00;50.70;;;46.00;;
3811;SDS011;1921;49.368;11.068;2022-11-15T04:00:27;49.73;;;45.03;;
3811;SDS011;1921;49.368;11.068;2022-11-15T04:02:53;51.53;;;46.33;;
3811;SDS011;1921;49.368;11.068;2022-11-15T04:05:19;50.80;;;45.90;;
3811;SDS011;1921;49.368;11.068;2022-11-15T04:07:45;48.83;;;44.63;;
3811;SDS011;1921;49.368;11.068;2022-11-15T04:10:11;48.80;;;44.60;;
3811;SDS011;1921;49.368;11.068;2022-11-15T04:12:41;47.90;;;43.50;;
3811;SDS011;1921;49.368;11.068;2022-11-15T04:15:15;48.73;;;44.50;;
3811;SDS011;1921;49.368;11.068;2022-11-15T04:17:51;48.27;;;44.07;;
3811;SDS011;1921;49.368;11.068;2022-11-15T04:20:20;48.57;;;44.10;;
3811;SDS011;1921;49.368;11.068;2022-11-15T04:23:17;47.70;;;43.60;;
3811;SDS011;1921;49.368;11.068;2022-11-15T04:26:05;47.70;;;43.70;;
3811;SDS011;1921;49.368;11.068;2022-11-15T04:28:35;47.67;;;43.77;;
3811;SDS011;1921;49.368;11.068;2022-11-15T04:31:20;49.03;;;44.83;;
3811;SDS011;1921;49.368;11.068;2022-11-15T04:33:46;47.80;;;43.80;;
3811;SDS011;1921;49.368;11.068;2022-11-15T04:36:12;49.07;;;44.77;;
3811;SDS011;1921;49.368;11.068;2022-11-15T04:38:57;47.13;;;43.13;;
3811;SDS011;1921;49.368;11.068;2022-11-15T04:41:22;47.60;;;43.77;;
3811;SDS011;1921;49.368;11.068;2022-11-15T04:43:48;47.40;;;43.40;;
3811;SDS011;1921;49.368;11.068;2022-11-15T04:46:14;48.13;;;43.87;;
3811;SDS011;1921;49.368;11.068;2022-11-15T04:48:39;47.97;;;43.80;;
3811;SDS011;1921;49.368;11.068;2022-11-15T04:51:05;49.33;;;44.33;;
3811;SDS011;1921;49.368;11.068;2022-11-15T04:53:31;48.43;;;44.40;;
3811;SDS011;1921;49.368;11.068;2022-11-15T04:55:56;48.00;;;44.00;;
3811;SDS011;1921;49.368;11.068;2022-11-15T04:58:22;48.73;;;44.37;;
3811;SDS011;1921;49.368;11.068;2022-11-15T05:00:48;48.57;;;44.40;;
3811;SDS011;1921;49.368;11.068;2022-11-15T05:03:14;47.73;;;43.80;;
3811;SDS011;1921;49.368;11.068;2022-11-15T05:05:58;50.50;;;46.00;;
3811;SDS011;1921;49.368;11.068;2022-11-15T05:08:24;48.50;;;44.20;;
3811;SDS011;1921;49.368;11.068;2022-11-15T05:10:50;50.17;;;45.90;;
3811;SDS011;1921;49.368;11.068;2022-11-15T05:13:16;49.70;;;44.30;;
3811;SDS011;1921;49.368;11.068;2022-11-15T05:15:42;46.77;;;43.07;;
3811;SDS011;1921;49.368;11.068;2022-11-15T05:18:08;46.27;;;42.50;;
3811;SDS011;1921;49.368;11.068;2022-11-15T05:20:34;47.97;;;43.57;;
3811;SDS011;1921;49.368;11.068;2022-11-15T05:23:00;46.93;;;43.13;;
3811;SDS011;1921;49.368;11.068;2022-11-15T05:25:26;47.90;;;43.60;;
3811;SDS011;1921;49.368;11.068;2022-11-15T05:27:52;48.93;;;44.83;;
3811;SDS011;1921;49.368;11.068;2022-11-15T05:30:18;48.80;;;44.30;;
3811;SDS011;1921;49.368;11.068;2022-11-15T05:32:44;47.37;;;43.43;;
3811;SDS011;1921;49.368;11.068;2022-11-15T05:35:12;49.73;;;45.30;;
3811;SDS011;1921;49.368;11.068;2022-11-15T05:37:47;49.63;;;45.30;;
3811;SDS011;1921;49.368;11.068;2022-11-15T05:40:14;49.40;;;44.63;;
3811;SDS011;1921;49.368;11.068;2022-11-15T05:42:40;47.17;;;43.20;;
3811;SDS011;1921;49.368;11.068;2022-11-15T05:45:06;50.10;;;45.53;;
3811;SDS011;1921;49.368;11.068;2022-11-15T05:47:34;48.70;;;44.40;;
3811;SDS011;1921;49.368;11.068;2022-11-15T05:50:02;48.47;;;44.47;;
3811;SDS011;1921;49.368;11.068;2022-11-15T05:52:29;49.73;;;45.23;;
3811;SDS011;1921;49.368;11.068;2022-11-15T05:55:00;48.07;;;44.00;;
3811;SDS011;1921;49.368;11.068;2022-11-15T05:57:27;50.33;;;45.50;;
3811;SDS011;1921;49.368;11.068;2022-11-15T05:59:53;48.43;;;44.13;;
3811;SDS011;1921;49.368;11.068;2022-11-15T06:02:20;48.20;;;43.83;;
3811;SDS011;1921;49.368;11.068;2022-11-15T06:04:45;47.50;;;43.50;;
3811;SDS011;1921;49.368;11.068;2022-11-15T06:07:11;47.13;;;43.27;;
3811;SDS011;1921;49.368;11.068;2022-11-15T06:09:37;48.93;;;44.80;;
3811;SDS011;1921;49.368;11.068;2022-11-15T06:12:02;45.77;;;42.17;;
3811;SDS011;1921;49.368;11.068;2022-11-15T06:14:28;46.50;;;42.70;;
3811;SDS011;1921;49.368;11.068;2022-11-15T06:16:54;48.30;;;44.37;;
3811;SDS011;1921;49.368;11.068;2022-11-15T06:19:20;47.27;;;43.47;;
3811;SDS011;1921;49.368;11.068;2022-11-15T06:21:46;48.40;;;44.40;;
3811;SDS011;1921;49.368;11.068;2022-11-15T06:24:12;47.37;;;43.23;;
3811;SDS011;1921;49.368;11.068;2022-11-15T06:26:37;49.73;;;44.93;;
3811;SDS011;1921;49.368;11.068;2022-11-15T06:29:03;47.47;;;43.37;;
3811;SDS011;1921;49.368;11.068;2022-11-15T06:31:29;47.07;;;43.27;;
3811;SDS011;1921;49.368;11.068;2022-11-15T06:33:55;46.80;;;42.83;;
3811;SDS011;1921;49.368;11.068;2022-11-15T06:36:21;49.27;;;44.67;;
3811;SDS011;1921;49.368;11.068;2022-11-15T06:38:47;47.73;;;43.73;;
3811;SDS011;1921;49.368;11.068;2022-11-15T06:41:13;48.57;;;43.97;;
3811;SDS011;1921;49.368;11.068;2022-11-15T06:43:39;48.60;;;44.43;;
3811;SDS011;1921;49.368;11.068;2022-11-15T06:46:06;48.00;;;44.00;;
3811;SDS011;1921;49.368;11.068;2022-11-15T06:48:33;47.47;;;43.50;;
3811;SDS011;1921;49.368;11.068;2022-11-15T06:51:00;47.60;;;43.40;;
3811;SDS011;1921;49.368;11.068;2022-11-15T06:53:27;48.90;;;44.60;;
3811;SDS011;1921;49.368;11.068;2022-11-15T06:55:57;49.27;;;44.70;;
3811;SDS011;1921;49.368;11.068;2022-11-15T06:58:25;47.93;;;43.83;;
3811;SDS011;1921;49.368;11.068;2022-11-15T07:00:51;49.63;;;45.33;;
3811;SDS011;1921;49.368;11.068;2022-11-15T07:03:17;50.10;;;45.50;;
3811;SDS011;1921;49.368;11.068;2022-11-15T07:05:49;49.93;;;45.20;;
3811;SDS011;1921;49.368;11.068;2022-11-15T07:08:21;47.87;;;43.87;;
3811;SDS011;1921;49.368;11.068;2022-11-15T07:10:48;48.90;;;44.20;;
3811;SDS011;1921;49.368;11.068;2022-11-15T07:13:13;48.27;;;43.93;;
3811;SDS011;1921;49.368;11.068;2022-11-15T07:15:39;49.90;;;45.50;;
3811;SDS011;1921;49.368;11.068;2022-11-15T07:18:05;48.20;;;44.00;;
3811;SDS011;1921;49.368;11.068;2022-11-15T07:20:31;48.67;;;44.27;;
3811;SDS011;1921;49.368;11.068;2022-11-15T07:23:03;49.10;;;44.70;;
3811;SDS011;1921;49.368;11.068;2022-11-15T07:25:30;48.13;;;44.03;;
3811;SDS011;1921;49.368;11.068;2022-11-15T07:27:57;49.00;;;44.53;;
3811;SDS011;1921;49.368;11.068;2022-11-15T07:30:24;49.67;;;45.07;;
3811;SDS011;1921;49.368;11.068;2022-11-15T07:32:54;49.70;;;45.17;;
3811;SDS011;1921;49.368;11.068;2022-11-15T07:35:25;48.50;;;44.20;;
3811;SDS011;1921;49.368;11.068;2022-11-15T07:37:53;49.13;;;44.60;;
3811;SDS011;1921;49.368;11.068;2022-11-15T07:40:27;49.37;;;44.77;;
3811;SDS011;1921;49.368;11.068;2022-11-15T07:43:06;50.10;;;45.50;;
3811;SDS011;1921;49.368;11.068;2022-11-15T07:45:33;49.33;;;44.73;;
3811;SDS011;1921;49.368;11.068;2022-11-15T07:48:04;50.00;;;45.40;;
3811;SDS011;1921;49.368;11.068;2022-11-15T07:50:30;48.20;;;43.80;;
3811;SDS011;1921;49.368;11.068;2022-11-15T07:52:57;49.27;;;44.77;;
3811;SDS011;1921;49.368;11.068;2022-11-15T07:55:24;49.03;;;44.63;;
3811;SDS011;1921;49.368;11.068;2022-11-15T07:57:59;49.40;;;44.70;;
3811;SDS011;1921;49.368;11.068;2022-11-15T08:00:30;49.43;;;44.73;;
3811;SDS011;1921;49.368;11.068;2022-11-15T08:03:07;50.10;;;45.03;;
3811;SDS011;1921;49.368;11.068;2022-11-15T08:05:35;50.63;;;45.97;;
3811;SDS011;1921;49.368;11.068;2022-11-15T08:08:04;50.17;;;45.27;;
3811;SDS011;1921;49.368;11.068;2022-11-15T08:10:31;48.70;;;44.20;;
3811;SDS011;1921;49.368;11.068;2022-11-15T08:12:58;50.50;;;45.70;;
3811;SDS011;1921;49.368;11.068;2022-11-15T08:15:29;52.00;;;46.50;;
3811;SDS011;1921;49.368;11.068;2022-11-15T08:17:57;50.47;;;45.67;;
3811;SDS011;1921;49.368;11.068;2022-11-15T08:20:26;50.30;;;45.40;;
3811;SDS011;1921;49.368;11.068;2022-11-15T08:22:57;50.37;;;45.47;;
3811;SDS011;1921;49.368;11.068;2022-11-15T08:25:24;50.83;;;45.93;;
3811;SDS011;1921;49.368;11.068;2022-11-15T08:27:52;50.77;;;45.87;;
3811;SDS011;1921;49.368;11.068;2022-11-15T08:30:22;50.17;;;45.43;;
3811;SDS011;1921;49.368;11.068;2022-11-15T08:32:49;51.90;;;46.47;;
3811;SDS011;1921;49.368;11.068;2022-11-15T08:35:17;51.83;;;46.63;;
3811;SDS011;1921;49.368;11.068;2022-11-15T08:37:44;50.80;;;45.90;;
3811;SDS011;1921;49.368;11.068;2022-11-15T08:40:10;52.57;;;47.10;;
3811;SDS011;1921;49.368;11.068;2022-11-15T08:42:36;52.60;;;47.23;;
3811;SDS011;1921;49.368;11.068;2022-11-15T08:45:02;52.07;;;46.67;;
3811;SDS011;1921;49.368;11.068;2022-11-15T08:47:29;52.80;;;47.13;;
3811;SDS011;1921;49.368;11.068;2022-11-15T08:49:55;51.90;;;46.50;;
3811;SDS011;1921;49.368;11.068;2022-11-15T08:52:21;53.43;;;47.67;;
3811;SDS011;1921;49.368;11.068;2022-11-15T08:54:46;52.90;;;47.40;;
3811;SDS011;1921;49.368;11.068;2022-11-15T08:57:13;53.17;;;47.63;;
3811;SDS011;1921;49.368;11.068;2022-11-15T08:59:39;53.53;;;47.73;;
3811;SDS011;1921;49.368;11.068;2022-11-15T09:02:05;54.60;;;48.70;;
3811;SDS011;1921;49.368;11.068;2022-11-15T09:04:31;64.93;;;48.90;;
3811;SDS011;1921;49.368;11.068;2022-11-15T09:06:57;55.20;;;49.10;;
3811;SDS011;1921;49.368;11.068;2022-11-15T09:09:23;60.33;;;50.70;;
3811;SDS011;1921;49.368;11.068;2022-11-15T09:11:48;56.63;;;49.70;;
3811;SDS011;1921;49.368;11.068;2022-11-15T09:14:15;56.13;;;50.03;;
3811;SDS011;1921;49.368;11.068;2022-11-15T09:16:41;58.40;;;49.30;;
3811;SDS011;1921;49.368;11.068;2022-11-15T09:19:07;69.73;;;49.70;;
3811;SDS011;1921;49.368;11.068;2022-11-15T09:21:33;56.90;;;49.20;;
3811;SDS011;1921;49.368;11.068;2022-11-15T09:23:58;56.20;;;49.67;;
3811;SDS011;1921;49.368;11.068;2022-11-15T09:26:24;54.47;;;48.20;;
3811;SDS011;1921;49.368;11.068;2022-11-15T09:28:50;58.80;;;49.77;;
3811;SDS011;1921;49.368;11.068;2022-11-15T09:31:16;56.80;;;49.43;;
3811;SDS011;1921;49.368;11.068;2022-11-15T09:33:45;55.33;;;49.30;;
3811;SDS011;1921;49.368;11.068;2022-11-15T09:36:11;55.70;;;49.50;;
3811;SDS011;1921;49.368;11.068;2022-11-15T09:38:37;57.57;;;49.73;;
3811;SDS011;1921;49.368;11.068;2022-11-15T09:48:56;57.73;;;48.80;;
3811;SDS011;1921;49.368;11.068;2022-11-15T09:51:28;54.67;;;48.40;;
3811;SDS011;1921;49.368;11.068;2022-11-15T09:54:09;55.43;;;49.30;;
3811;SDS011;1921;49.368;11.068;2022-11-15T09:57:03;55.07;;;49.07;;
3811;SDS011;1921;49.368;11.068;2022-11-15T10:02:54;54.93;;;48.93;;
3811;SDS011;1921;49.368;11.068;2022-11-15T10:05:47;54.67;;;48.67;;
3811;SDS011;1921;49.368;11.068;2022-11-15T10:11:28;55.77;;;49.43;;
3811;SDS011;1921;49.368;11.068;2022-11-15T10:13:59;54.77;;;48.77;;
3811;SDS011;1921;49.368;11.068;2022-11-15T10:22:34;58.43;;;49.50;;
3811;SDS011;1921;49.368;11.068;2022-11-15T10:25:15;57.03;;;49.83;;
3811;SDS011;1921;49.368;11.068;2022-11-15T10:28:01;56.83;;;49.60;;
3811;SDS011;1921;49.368;11.068;2022-11-15T10:30:50;60.03;;;50.87;;
3811;SDS011;1921;49.368;11.068;2022-11-15T10:41:20;58.20;;;50.30;;
3811;SDS011;1921;49.368;11.068;2022-11-15T10:44:08;59.73;;;50.47;;
3811;SDS011;1921;49.368;11.068;2022-11-15T10:49:28;57.87;;;49.87;;
3811;SDS011;1921;49.368;11.068;2022-11-15T10:54:56;61.03;;;51.00;;
3811;SDS011;1921;49.368;11.068;2022-11-15T10:57:32;58.70;;;50.00;;
3811;SDS011;1921;49.368;11.068;2022-11-15T11:06:02;60.53;;;50.03;;
3811;SDS011;1921;49.368;11.068;2022-11-15T11:08:30;58.37;;;50.67;;
3811;SDS011;1921;49.368;11.068;2022-11-15T11:10:58;59.00;;;50.60;;
3811;SDS011;1921;49.368;11.068;2022-11-15T11:22:11;55.80;;;49.10;;
3811;SDS011;1921;49.368;11.068;2022-11-15T11:27:41;56.07;;;49.40;;
3811;SDS011;1921;49.368;11.068;2022-11-15T11:30:17;56.17;;;49.30;;
3811;SDS011;1921;49.368;11.068;2022-11-15T11:46:58;54.80;;;48.37;;
3811;SDS011;1921;49.368;11.068;2022-11-15T11:49:57;54.20;;;48.30;;
3811;SDS011;1921;49.368;11.068;2022-11-15T11:52:38;55.00;;;49.00;;
3811;SDS011;1921;49.368;11.068;2022-11-15T11:55:21;54.23;;;48.33;;
3811;SDS011;1921;49.368;11.068;2022-11-15T12:04:14;53.90;;;48.10;;
3811;SDS011;1921;49.368;11.068;2022-11-15T12:06:53;54.20;;;48.40;;
3811;SDS011;1921;49.368;11.068;2022-11-15T12:09:26;53.97;;;48.07;;
3811;SDS011;1921;49.368;11.068;2022-11-15T12:12:15;54.50;;;48.50;;
3811;SDS011;1921;49.368;11.068;2022-11-15T12:17:33;53.87;;;48.03;;
3811;SDS011;1921;49.368;11.068;2022-11-15T12:20:01;56.80;;;48.40;;
3811;SDS011;1921;49.368;11.068;2022-11-15T12:22:43;53.93;;;48.07;;
3811;SDS011;1921;49.368;11.068;2022-11-15T12:27:54;54.40;;;48.50;;
3811;SDS011;1921;49.368;11.068;2022-11-15T12:31:11;54.33;;;48.33;;
3811;SDS011;1921;49.368;11.068;2022-11-15T12:33:49;55.80;;;49.60;;
3811;SDS011;1921;49.368;11.068;2022-11-15T12:38:53;54.33;;;48.40;;
3811;SDS011;1921;49.368;11.068;2022-11-15T13:10:47;58.93;;;48.73;;
3811;SDS011;1921;49.368;11.068;2022-11-15T13:13:04;54.13;;;48.00;;
3811;SDS011;1921;49.368;11.068;2022-11-15T13:15:54;54.83;;;48.90;;
3811;SDS011;1921;49.368;11.068;2022-11-15T13:21:02;55.10;;;48.30;;
3811;SDS011;1921;49.368;11.068;2022-11-15T13:23:52;53.80;;;47.97;;
3811;SDS011;1921;49.368;11.068;2022-11-15T13:26:19;53.93;;;48.13;;
3811;SDS011;1921;49.368;11.068;2022-11-15T13:28:47;55.10;;;49.10;;
3811;SDS011;1921;49.368;11.068;2022-11-15T13:34:48;55.00;;;49.10;;
3811;SDS011;1921;49.368;11.068;2022-11-15T13:36:52;53.27;;;47.57;;
3811;SDS011;1921;49.368;11.068;2022-11-15T13:39:26;53.63;;;47.80;;
3811;SDS011;1921;49.368;11.068;2022-11-15T13:41:56;53.70;;;47.90;;
3811;SDS011;1921;49.368;11.068;2022-11-15T13:44:25;54.00;;;48.20;;
3811;SDS011;1921;49.368;11.068;2022-11-15T13:47:04;54.73;;;48.83;;
3811;SDS011;1921;49.368;11.068;2022-11-15T13:49:40;53.17;;;47.50;;
3811;SDS011;1921;49.368;11.068;2022-11-15T13:52:07;53.80;;;47.90;;
3811;SDS011;1921;49.368;11.068;2022-11-15T13:57:23;54.13;;;48.20;;
3811;SDS011;1921;49.368;11.068;2022-11-15T14:00:00;53.67;;;47.93;;
3811;SDS011;1921;49.368;11.068;2022-11-15T14:02:33;54.60;;;48.70;;
3811;SDS011;1921;49.368;11.068;2022-11-15T14:07:55;54.60;;;48.70;;
3811;SDS011;1921;49.368;11.068;2022-11-15T14:10:34;54.00;;;48.10;;
3811;SDS011;1921;49.368;11.068;2022-11-15T14:13:09;53.60;;;47.70;;
3811;SDS011;1921;49.368;11.068;2022-11-15T14:15:52;53.47;;;47.67;;
3811;SDS011;1921;49.368;11.068;2022-11-15T14:21:11;52.90;;;47.40;;
3811;SDS011;1921;49.368;11.068;2022-11-15T14:23:37;53.57;;;47.87;;
3811;SDS011;1921;49.368;11.068;2022-11-15T14:26:03;53.50;;;47.80;;
3811;SDS011;1921;49.368;11.068;2022-11-15T14:28:30;53.13;;;47.53;;
3811;SDS011;1921;49.368;11.068;2022-11-15T14:31:02;52.97;;;47.37;;
3811;SDS011;1921;49.368;11.068;2022-11-15T14:33:38;53.80;;;47.57;;
3811;SDS011;1921;49.368;11.068;2022-11-15T14:36:17;53.10;;;47.50;;
3811;SDS011;1921;49.368;11.068;2022-11-15T14:38:45;52.60;;;47.07;;
3811;SDS011;1921;49.368;11.068;2022-11-15T14:41:23;52.37;;;46.90;;
3811;SDS011;1921;49.368;11.068;2022-11-15T14:43:51;53.07;;;47.37;;
3811;SDS011;1921;49.368;11.068;2022-11-15T14:46:17;52.83;;;47.27;;
3811;SDS011;1921;49.368;11.068;2022-11-15T14:48:44;52.53;;;47.03;;
3811;SDS011;1921;49.368;11.068;2022-11-15T14:51:13;51.77;;;46.37;;
3811;SDS011;1921;49.368;11.068;2022-11-15T14:53:43;52.77;;;47.07;;
3811;SDS011;1921;49.368;11.068;2022-11-15T14:56:10;51.77;;;46.40;;
3811;SDS011;1921;49.368;11.068;2022-11-15T14:58:36;52.43;;;46.93;;
3811;SDS011;1921;49.368;11.068;2022-11-15T15:01:03;52.00;;;46.50;;
3811;SDS011;1921;49.368;11.068;2022-11-15T15:03:42;51.70;;;46.50;;
3811;SDS011;1921;49.368;11.068;2022-11-15T15:06:09;52.33;;;46.77;;
3811;SDS011;1921;49.368;11.068;2022-11-15T15:08:35;52.27;;;46.77;;
3811;SDS011;1921;49.368;11.068;2022-11-15T15:11:00;51.50;;;46.30;;
3811;SDS011;1921;49.368;11.068;2022-11-15T15:13:26;51.23;;;46.00;;
3811;SDS011;1921;49.368;11.068;2022-11-15T15:15:53;51.97;;;46.67;;
3811;SDS011;1921;49.368;11.068;2022-11-15T15:18:19;51.80;;;46.57;;
3811;SDS011;1921;49.368;11.068;2022-11-15T15:20:45;52.30;;;46.90;;
3811;SDS011;1921;49.368;11.068;2022-11-15T15:23:24;52.27;;;46.83;;
3811;SDS011;1921;49.368;11.068;2022-11-15T15:25:54;56.30;;;47.97;;
3811;SDS011;1921;49.368;11.068;2022-11-15T15:28:20;52.60;;;47.10;;
3811;SDS011;1921;49.368;11.068;2022-11-15T15:30:45;52.87;;;47.40;;
3811;SDS011;1921;49.368;11.068;2022-11-15T15:33:11;51.63;;;46.43;;
3811;SDS011;1921;49.368;11.068;2022-11-15T15:35:37;52.63;;;47.33;;
3811;SDS011;1921;49.368;11.068;2022-11-15T15:38:03;51.87;;;46.67;;
3811;SDS011;1921;49.368;11.068;2022-11-15T15:40:29;52.90;;;47.50;;
3811;SDS011;1921;49.368;11.068;2022-11-15T15:42:57;51.83;;;46.60;;
3811;SDS011;1921;49.368;11.068;2022-11-15T15:45:24;52.70;;;47.27;;
3811;SDS011;1921;49.368;11.068;2022-11-15T15:47:52;53.67;;;47.90;;
3811;SDS011;1921;49.368;11.068;2022-11-15T15:50:25;51.90;;;46.80;;
3811;SDS011;1921;49.368;11.068;2022-11-15T15:52:54;52.33;;;47.03;;
3811;SDS011;1921;49.368;11.068;2022-11-15T15:55:22;57.87;;;50.80;;
3811;SDS011;1921;49.368;11.068;2022-11-15T15:57:48;51.87;;;46.70;;
3811;SDS011;1921;49.368;11.068;2022-11-15T16:00:14;52.87;;;47.17;;
3811;SDS011;1921;49.368;11.068;2022-11-15T16:02:41;51.80;;;46.50;;
3811;SDS011;1921;49.368;11.068;2022-11-15T16:05:07;53.23;;;47.83;;
3811;SDS011;1921;49.368;11.068;2022-11-15T16:07:34;54.03;;;48.47;;
3811;SDS011;1921;49.368;11.068;2022-11-15T16:10:00;60.00;;;53.20;;
3811;SDS011;1921;49.368;11.068;2022-11-15T16:12:28;55.07;;;48.43;;
3811;SDS011;1921;49.368;11.068;2022-11-15T16:14:56;59.90;;;51.67;;
3811;SDS011;1921;49.368;11.068;2022-11-15T16:17:23;55.63;;;49.60;;
3811;SDS011;1921;49.368;11.068;2022-11-15T16:19:56;53.13;;;47.83;;
3811;SDS011;1921;49.368;11.068;2022-11-15T16:22:22;56.17;;;50.17;;
3811;SDS011;1921;49.368;11.068;2022-11-15T16:24:48;64.10;;;52.43;;
3811;SDS011;1921;49.368;11.068;2022-11-15T16:27:14;63.47;;;52.47;;
3811;SDS011;1921;49.368;11.068;2022-11-15T16:29:43;59.50;;;49.97;;
3811;SDS011;1921;49.368;11.068;2022-11-15T16:32:09;65.03;;;51.67;;
3811;SDS011;1921;49.368;11.068;2022-11-15T16:34:35;57.23;;;50.77;;
3811;SDS011;1921;49.368;11.068;2022-11-15T16:37:01;61.53;;;51.90;;
3811;SDS011;1921;49.368;11.068;2022-11-15T16:39:27;58.73;;;51.50;;
3811;SDS011;1921;49.368;11.068;2022-11-15T16:41:55;56.80;;;50.77;;
3811;SDS011;1921;49.368;11.068;2022-11-15T16:44:25;54.47;;;48.77;;
3811;SDS011;1921;49.368;11.068;2022-11-15T16:46:51;54.93;;;49.10;;
3811;SDS011;1921;49.368;11.068;2022-11-15T16:49:17;57.33;;;48.80;;
3811;SDS011;1921;49.368;11.068;2022-11-15T16:51:45;56.03;;;50.10;;
3811;SDS011;1921;49.368;11.068;2022-11-15T16:54:14;55.10;;;49.10;;
3811;SDS011;1921;49.368;11.068;2022-11-15T16:56:40;55.67;;;49.73;;
3811;SDS011;1921;49.368;11.068;2022-11-15T16:59:08;55.40;;;49.80;;
3811;SDS011;1921;49.368;11.068;2022-11-15T17:01:41;55.50;;;49.47;;
3811;SDS011;1921;49.368;11.068;2022-11-15T17:04:15;53.63;;;47.97;;
3811;SDS011;1921;49.368;11.068;2022-11-15T17:06:46;56.77;;;50.27;;
3811;SDS011;1921;49.368;11.068;2022-11-15T17:09:13;60.60;;;48.97;;
3811;SDS011;1921;49.368;11.068;2022-11-15T17:11:45;54.97;;;49.17;;
3811;SDS011;1921;49.368;11.068;2022-11-15T17:14:11;55.43;;;49.70;;
3811;SDS011;1921;49.368;11.068;2022-11-15T17:16:37;54.93;;;48.97;;
3811;SDS011;1921;49.368;11.068;2022-11-15T17:19:10;54.97;;;49.07;;
3811;SDS011;1921;49.368;11.068;2022-11-15T17:21:38;54.13;;;48.40;;
3811;SDS011;1921;49.368;11.068;2022-11-15T17:24:03;56.30;;;49.73;;
3811;SDS011;1921;49.368;11.068;2022-11-15T17:26:29;52.77;;;47.40;;